LEBA/ODB METAR and TAF weather

Enter ICAO airport designator
Station Type Date Time Source
LEBA METAR 2020/01/20 10:00 UTC NOAA

LEBA 201000Z 07012G22KT 9999 FEW045 08/M02 Q1017


Station Type Date Time Source
LEBA Decoded METAR 2020/01/20 10:00 UTC NOAA

Cordoba / Aeropuerto, Spain (LEBA) 37-51N 004-51W 92M
Jan 20, 2020 - 05:00 AM EST / 2020.01.20 1000 UTC
Wind: from the ENE (070 degrees) at 14 MPH (12 KT) gusting to 25 MPH (22 KT):0
Visibility: greater than 7 mile(s):0
Sky conditions: mostly clear
Temperature: 46 F (8 C)
Dew Point: 28 F (-2 C)
Relative Humidity: 49%
Pressure (altimeter): 30.03 in. Hg (1017 hPa)
ob: LEBA 201000Z 07012G22KT 9999 FEW045 08/M02 Q1017
cycle: 10

Station Type Date Time Source
LEBA TAF 2015/01/24 09:27 UTC NOAA

TAF TAF LEBA 240800Z 2409/2421 VRB02KT CAVOK

Example: see airport list